Time;durP1;ratioP1;P1;durP2;ratioP2;P2;SDS_P1;SDS_P2;PMS_P1;PMS_P2;Temp;Humidity;BMP_temperature;BMP_pressure;BME280_temperature;BME280_humidity;BME280_pressure;Samples;Min_cycle;Max_cycle;Signal;HPM_P1;HPM_P2
2022/09/19 00:00:25;;;;;;;;;;;;;;;14.38;43.66;99718.84;5012024;28;19971;-81
2022/09/19 00:02:51;;;;;;;0.20;0.20;;;;;;;14.17;43.37;99704.41;5011344;28;19914;-81
2022/09/19 00:05:16;;;;;;;0.20;0.20;;;;;;;14.30;45.23;99702.25;5011356;28;20511;-80
2022/09/19 00:07:43;;;;;;;;;;;;;;;14.27;46.59;99718.25;5012082;28;20030;-80
2022/09/19 00:10:08;;;;;;;0.98;0.90;;;;;;;14.08;47.76;99694.06;5011577;28;19971;-80
2022/09/19 00:12:34;;;;;;;0.28;0.28;;;;;;;14.09;46.60;99704.63;5011124;28;20038;-81
2022/09/19 00:15:00;;;;;;;0.20;0.20;;;;;;;13.90;45.74;99716.69;5011473;28;20099;-80
2022/09/19 00:17:25;;;;;;;;;;;;;;;13.85;46.80;99714.16;5011718;28;20026;-81
2022/09/19 00:19:51;;;;;;;0.30;0.30;;;;;;;13.92;47.41;99707.78;5011106;28;20277;-80
2022/09/19 00:22:17;;;;;;;0.20;0.20;;;;;;;14.05;47.82;99707.41;5011401;28;20034;-81
2022/09/19 00:24:45;;;;;;;0.20;0.20;;;;;;;13.99;49.78;99719.06;5011386;28;20389;-81
2022/09/19 00:27:22;;;;;;;1.88;1.35;;;;;;;13.95;50.19;99709.47;5011104;28;20488;-81
2022/09/19 00:29:48;;;;;;;0.28;0.28;;;;;;;13.72;47.93;99694.22;5011172;28;20474;-81
2022/09/19 00:32:15;;;;;;;0.20;0.20;;;;;;;13.65;48.83;99729.75;5011276;28;20034;-81
2022/09/19 00:34:47;;;;;;;0.28;0.28;;;;;;;13.49;50.71;99698.38;5011083;28;20038;-80
2022/09/19 00:37:14;;;;;;;0.28;0.28;;;;;;;13.39;50.37;99695.09;5010926;28;20489;-81
2022/09/19 00:39:41;;;;;;;0.20;0.20;;;;;;;13.54;50.12;99719.44;5010907;28;20038;-81
2022/09/19 00:42:22;;;;;;;0.38;0.38;;;;;;;13.55;51.19;99711.44;5011180;28;20046;-81
2022/09/19 00:44:54;;;;;;;0.20;0.20;;;;;;;13.65;51.58;99716.50;5011364;28;20042;-80
2022/09/19 00:47:24;;;;;;;0.20;0.20;;;;;;;13.31;51.62;99689.06;5011003;28;20033;-81
2022/09/19 00:49:54;;;;;;;0.20;0.20;;;;;;;12.98;50.97;99689.03;5010916;28;20065;-80
2022/09/19 00:52:29;;;;;;;0.50;0.50;;;;;;;12.86;51.75;99686.69;5010683;28;20056;-80
2022/09/19 00:54:56;;;;;;;0.77;0.77;;;;;;;12.97;52.12;99692.59;5011357;28;20068;-81
2022/09/19 00:57:30;;;;;;;0.25;0.25;;;;;;;12.89;52.09;99689.28;5010977;28;20520;-81
2022/09/19 00:59:57;;;;;;;0.20;0.20;;;;;;;12.89;52.20;99687.47;5010883;28;20084;-81
2022/09/19 01:02:28;;;;;;;0.20;0.20;;;;;;;13.13;52.31;99685.16;5011208;28;20029;-82
2022/09/19 01:04:54;;;;;;;1.05;1.05;;;;;;;12.89;52.41;99668.94;5010387;28;20057;-81
2022/09/19 01:07:56;;;;;;;;;;;;;;;13.19;51.71;99697.34;5011256;28;20119;-81
2022/09/19 01:11:06;;;;;;;0.30;0.30;;;;;;;12.99;52.56;99674.91;4950135;29;19922;-82
2022/09/19 01:13:42;;;;;;;0.20;0.20;;;;;;;13.05;53.10;99682.69;5009738;28;20068;-82
2022/09/19 01:16:46;;;;;;;0.28;0.28;;;;;;;13.07;52.93;99693.25;5014900;28;20030;-81
2022/09/19 01:19:15;;;;;;;0.30;0.30;;;;;;;13.04;52.33;99702.13;5004032;28;20038;-81
2022/09/19 01:21:52;;;;;;;0.35;0.35;;;;;;;12.69;53.35;99665.94;5014511;28;20022;-81
2022/09/19 01:24:43;;;;;;;0.30;0.30;;;;;;;12.54;53.99;99659.22;5014466;28;20052;-81
2022/09/19 01:27:51;;;;;;;0.35;0.35;;;;;;;12.51;54.24;99651.34;5014337;28;20033;-81
2022/09/19 01:30:17;;;;;;;0.22;0.22;;;;;;;12.62;54.10;99670.50;5014544;28;20061;-81
2022/09/19 01:33:05;;;;;;;0.90;0.90;;;;;;;12.57;54.45;99656.50;5014200;28;20030;-82
2022/09/19 01:35:37;;;;;;;0.40;0.40;;;;;;;12.51;54.19;99664.59;5014480;28;20038;-82
2022/09/19 01:38:11;;;;;;;0.32;0.32;;;;;;;12.68;55.11;99690.66;5013976;28;20095;-82
2022/09/19 01:40:38;;;;;;;0.20;0.20;;;;;;;12.75;55.21;99684.31;5014054;28;20037;-81
2022/09/19 01:43:06;;;;;;;0.20;0.20;;;;;;;12.60;54.30;99698.75;5014459;28;20034;-81
2022/09/19 01:45:38;;;;;;;0.20;0.20;;;;;;;12.42;54.85;99655.09;5014224;28;20040;-81
2022/09/19 01:48:16;;;;;;;0.80;0.68;;;;;;;12.72;55.11;99689.69;5013695;28;20061;-81
2022/09/19 01:51:10;;;;;;;0.20;0.20;;;;;;;12.66;55.94;99701.28;5013947;28;20136;-81
2022/09/19 01:54:08;;;;;;;0.30;0.30;;;;;;;12.57;56.03;99704.13;5014048;28;20042;-82
2022/09/19 01:56:48;;;;;;;0.30;0.30;;;;;;;12.32;55.87;99704.69;4987438;28;20042;-81
2022/09/19 01:59:47;;;;;;;0.30;0.30;;;;;;;11.90;55.99;99704.66;4994506;28;20034;-82
2022/09/19 02:02:23;;;;;;;0.30;0.30;;;;;;;11.62;56.66;99714.91;4996510;28;20523;-81
2022/09/19 02:05:35;;;;;;;0.25;0.25;;;;;;;11.62;56.89;99710.50;5013494;28;20037;-82
2022/09/19 02:08:01;;;;;;;3.63;1.15;;;;;;;11.72;56.95;99708.53;4961376;28;20046;-81
2022/09/19 02:10:56;;;;;;;;;;;;;;;11.69;57.57;99715.66;4994567;28;20477;-81
2022/09/19 02:13:25;;;;;;;0.30;0.30;;;;;;;11.78;58.32;99715.47;4992662;28;19975;-82
2022/09/19 02:15:58;;;;;;;0.20;0.20;;;;;;;11.77;58.45;99704.03;5013622;28;20029;-82
2022/09/19 02:18:34;;;;;;;0.68;0.68;;;;;;;11.53;59.34;99700.09;5013849;28;20088;-82
2022/09/19 02:21:07;;;;;;;0.20;0.20;;;;;;;11.45;59.97;99713.44;5013370;28;20476;-81
2022/09/19 02:23:46;;;;;;;0.30;0.30;;;;;;;11.14;60.16;99689.38;5013785;28;20480;-82
2022/09/19 02:26:20;;;;;;;0.35;0.35;;;;;;;11.11;60.12;99702.63;5013098;28;20030;-82
2022/09/19 02:28:54;;;;;;;0.65;0.52;;;;;;;11.23;60.77;99723.53;4996063;28;20451;-81
2022/09/19 02:31:23;;;;;;;0.43;0.43;;;;;;;11.21;60.78;99719.16;5013149;28;20067;-81
2022/09/19 02:33:49;;;;;;;0.22;0.22;;;;;;;11.29;60.30;99736.63;5012779;28;20034;-81
2022/09/19 02:36:15;;;;;;;;;;;;;;;11.23;59.72;99725.28;5013727;28;20045;-81
2022/09/19 02:38:54;;;;;;;0.35;0.35;;;;;;;11.25;59.89;99711.16;5012856;28;20443;-81
2022/09/19 02:41:36;;;;;;;0.30;0.30;;;;;;;11.28;60.64;99703.19;5013005;28;20492;-81
2022/09/19 02:44:21;;;;;;;0.30;0.30;;;;;;;11.27;60.71;99706.72;5013475;28;20030;-80
2022/09/19 02:46:47;;;;;;;;;;;;;;;11.26;61.08;99717.31;5013384;28;20113;-80
2022/09/19 02:49:38;;;;;;;1.05;1.05;;;;;;;11.33;61.29;99716.31;5012332;28;20484;-81
2022/09/19 02:52:12;;;;;;;0.30;0.30;;;;;;;11.25;60.72;99729.66;4994253;28;20041;-80
2022/09/19 02:54:42;;;;;;;0.90;0.90;;;;;;;11.05;61.27;99700.06;5013049;28;20038;-80
2022/09/19 02:57:13;;;;;;;0.30;0.30;;;;;;;11.13;61.89;99729.84;5012997;28;20099;-81
2022/09/19 02:59:43;;;;;;;0.40;0.40;;;;;;;11.06;61.41;99712.34;5012891;28;20030;-81
2022/09/19 03:02:22;;;;;;;0.75;0.75;;;;;;;11.17;61.33;99750.03;5012416;28;20169;-81
2022/09/19 03:04:56;;;;;;;0.55;0.55;;;;;;;11.22;61.81;99728.84;5012253;28;20057;-80
2022/09/19 03:07:40;;;;;;;0.30;0.30;;;;;;;11.15;62.10;99750.94;5012862;28;20122;-81
2022/09/19 03:10:12;;;;;;;0.20;0.20;;;;;;;11.17;62.07;99750.03;5012784;28;20038;-81
2022/09/19 03:12:50;;;;;;;0.35;0.35;;;;;;;10.88;62.61;99716.19;5012867;28;20057;-81
2022/09/19 03:15:33;;;;;;;0.30;0.30;;;;;;;11.11;63.13;99729.88;5012900;28;20025;-81
2022/09/19 03:18:01;;;;;;;0.30;0.30;;;;;;;11.10;62.85;99732.53;5012055;28;20068;-81
2022/09/19 03:20:27;;;;;;;0.30;0.30;;;;;;;10.96;63.40;99734.53;5012478;28;20034;-82
2022/09/19 03:22:53;;;;;;;;;;;;;;;10.96;63.04;99739.81;5013100;28;20029;-82
2022/09/19 03:25:19;;;;;;;0.30;0.30;;;;;;;10.57;63.15;99730.72;5012292;28;20398;-81
2022/09/19 03:27:45;;;;;;;0.30;0.30;;;;;;;10.59;63.37;99735.09;5012308;28;20116;-81
2022/09/19 03:30:12;;;;;;;;;;;;;;;10.39;63.80;99742.41;5005955;28;20109;-82
2022/09/19 03:32:39;;;;;;;0.60;0.60;;;;;;;10.32;64.54;99737.19;5004477;28;20322;-81
2022/09/19 03:35:06;;;;;;;0.60;0.60;;;;;;;10.28;64.41;99711.75;5012102;28;20117;-81
2022/09/19 03:37:32;;;;;;;0.30;0.30;;;;;;;10.51;63.92;99736.06;5010168;28;20030;-83
2022/09/19 03:39:58;;;;;;;;;;;;;;;10.52;64.25;99737.81;5012205;28;20034;-80
2022/09/19 03:42:24;;;;;;;0.38;0.38;;;;;;;10.47;64.24;99717.66;5008403;28;19914;-80
2022/09/19 03:44:50;;;;;;;0.30;0.30;;;;;;;10.52;64.16;99722.00;5006717;28;20053;-80
2022/09/19 03:47:15;;;;;;;;;;;;;;;10.54;64.59;99730.75;5007345;28;20025;-83
2022/09/19 03:49:41;;;;;;;0.30;0.30;;;;;;;10.36;64.25;99716.09;5012053;28;19918;-83
2022/09/19 03:52:06;;;;;;;;;;;;;;;10.44;63.76;99744.97;5008339;28;20103;-83
2022/09/19 03:54:32;;;;;;;;;;;;;;;10.34;63.79;99752.13;5012219;28;19913;-84
2022/09/19 03:56:57;;;;;;;0.30;0.30;;;;;;;10.16;64.07;99729.50;5011386;28;20406;-83
2022/09/19 03:59:22;;;;;;;;;;;;;;;10.49;62.95;99755.47;5012511;28;20042;-83
2022/09/19 04:01:48;;;;;;;;;;;;;;;10.39;63.75;99741.50;5009844;28;19925;-82
2022/09/19 04:04:14;;;;;;;1.23;1.23;;;;;;;10.16;64.39;99716.31;5008551;28;19944;-82
2022/09/19 04:06:40;;;;;;;0.40;0.40;;;;;;;10.56;63.66;99731.59;5010045;28;20291;-83
2022/09/19 04:09:05;;;;;;;;;;;;;;;10.54;64.03;99740.44;5011869;28;20413;-82
2022/09/19 04:11:31;;;;;;;0.32;0.32;;;;;;;10.34;64.48;99709.06;5011852;28;20376;-81
2022/09/19 04:13:56;;;;;;;;;;;;;;;10.39;64.27;99738.88;5011715;28;20029;-81
2022/09/19 04:16:24;;;;;;;;;;;;;;;10.13;64.86;99739.19;4998145;28;19925;-82
2022/09/19 04:18:50;;;;;;;0.70;0.70;;;;;;;9.78;64.77;99716.78;5009340;28;19920;-82
2022/09/19 04:21:16;;;;;;;;;;;;;;;9.93;64.13;99744.69;5007322;28;20025;-81
2022/09/19 04:23:43;;;;;;;0.40;0.40;;;;;;;9.73;65.01;99708.94;5010195;28;19932;-81
2022/09/19 04:26:11;;;;;;;0.30;0.30;;;;;;;9.96;65.00;99731.47;5006758;28;20053;-84
2022/09/19 04:28:38;;;;;;;0.75;0.75;;;;;;;9.93;65.49;99723.63;5010382;28;20034;-81
2022/09/19 04:31:05;;;;;;;0.30;0.30;;;;;;;10.00;65.94;99715.63;5010166;28;20036;-81
2022/09/19 04:33:31;;;;;;;0.38;0.38;;;;;;;10.01;66.03;99711.22;5010821;28;20030;-81
2022/09/19 04:35:59;;;;;;;;;;;;;;;10.23;66.72;99745.22;5011003;28;20103;-82
2022/09/19 04:38:26;;;;;;;1.65;0.95;;;;;;;10.29;66.38;99727.56;5011373;28;19920;-84
2022/09/19 04:40:56;;;;;;;0.50;0.50;;;;;;;10.37;66.06;99735.41;5011375;28;20093;-82
2022/09/19 04:43:23;;;;;;;0.50;0.50;;;;;;;10.36;65.83;99726.63;5011364;28;20038;-81
2022/09/19 04:45:50;;;;;;;0.40;0.40;;;;;;;10.25;65.80;99715.31;5010828;28;20025;-81
2022/09/19 04:48:16;;;;;;;0.45;0.45;;;;;;;10.51;65.00;99737.84;5014939;28;20049;-81
2022/09/19 04:50:44;;;;;;;0.40;0.40;;;;;;;10.48;65.56;99724.69;5015543;28;20113;-84
2022/09/19 04:53:13;;;;;;;0.40;0.40;;;;;;;10.65;64.71;99735.88;5014448;28;20025;-84
2022/09/19 04:55:40;;;;;;;0.40;0.40;;;;;;;10.88;64.63;99735.53;5014485;28;20033;-82
2022/09/19 04:58:06;;;;;;;0.90;0.90;;;;;;;10.84;64.69;99731.19;5010759;28;20109;-81
2022/09/19 05:00:38;;;;;;;;;;;;;;;11.06;63.51;99750.22;5011784;28;20172;-82
2022/09/19 05:03:15;;;;;;;0.85;0.85;;;;;;;10.93;63.54;99733.69;5013812;28;19913;-82
2022/09/19 05:05:50;;;;;;;2.83;2.50;;;;;;;11.15;63.29;99732.47;4995532;28;20061;-81
2022/09/19 05:08:25;;;;;;;5.83;1.80;;;;;;;11.31;62.64;99749.81;4997730;28;20080;-81
2022/09/19 05:10:54;;;;;;;0.32;0.32;;;;;;;11.40;62.44;99731.16;5007836;28;20106;-81
2022/09/19 05:13:20;;;;;;;0.30;0.30;;;;;;;11.39;61.78;99726.75;5005867;28;20169;-83
2022/09/19 05:15:46;;;;;;;0.35;0.35;;;;;;;11.62;61.52;99742.19;5014445;28;20534;-82
2022/09/19 05:18:11;;;;;;;;;;;;;;;11.82;60.83;99755.03;5014185;28;20109;-83
2022/09/19 05:20:37;;;;;;;;;;;;;;;11.89;60.81;99758.41;5010069;28;19925;-84
2022/09/19 05:23:03;;;;;;;;;;;;;;;12.02;59.98;99756.47;4999189;28;19914;-84
2022/09/19 05:25:30;;;;;;;0.30;0.30;;;;;;;12.10;60.96;99727.22;5014422;28;20315;-84
2022/09/19 05:27:57;;;;;;;0.35;0.35;;;;;;;12.44;58.75;99748.53;5014667;28;20022;-82
2022/09/19 05:30:26;;;;;;;0.30;0.30;;;;;;;12.75;59.04;99736.38;5014366;28;20022;-83
2022/09/19 05:32:51;;;;;;;0.30;0.30;;;;;;;13.07;58.10;99727.69;5013657;28;20108;-83
2022/09/19 05:35:17;;;;;;;;;;;;;;;13.30;58.08;99755.34;5009829;28;20564;-83
2022/09/19 05:37:45;;;;;;;0.25;0.25;;;;;;;13.22;56.38;99726.41;5013662;28;20445;-83
2022/09/19 05:40:10;;;;;;;0.30;0.30;;;;;;;13.27;56.39;99740.41;5012606;28;20038;-84
2022/09/19 05:42:40;;;;;;;;;;;;;;;13.29;56.23;99758.94;5013842;28;20107;-83
2022/09/19 05:45:06;;;;;;;0.20;0.20;;;;;;;13.36;56.89;99753.47;5013758;28;19914;-83
2022/09/19 05:47:32;;;;;;;0.30;0.30;;;;;;;13.51;55.99;99753.97;5013952;28;20061;-83
2022/09/19 05:49:57;;;;;;;;;;;;;;;13.96;56.07;99761.59;5015051;28;20077;-83
2022/09/19 05:55:07;;;;;;;0.20;0.20;;;;;;;14.60;52.40;99758.00;5013396;28;19919;-83
2022/09/19 05:57:34;;;;;;;1.15;1.10;;;;;;;14.85;50.18;99764.28;5000514;28;20504;-83
2022/09/19 05:59:59;;;;;;;0.22;0.22;;;;;;;14.74;49.65;99731.03;5014213;28;20029;-84
2022/09/19 06:02:25;;;;;;;0.20;0.20;;;;;;;15.27;46.83;99751.47;4996101;28;20046;-83
2022/09/19 06:04:50;;;;;;;;;;;;;;;15.42;47.55;99768.69;5014129;28;20057;-84
2022/09/19 06:07:16;;;;;;;0.68;0.68;;;;;;;15.88;47.23;99757.34;5012931;28;19953;-83
2022/09/19 06:09:42;;;;;;;0.22;0.22;;;;;;;16.16;45.93;99739.50;5013755;28;20030;-85
2022/09/19 06:12:08;;;;;;;0.20;0.20;;;;;;;16.53;45.13;99767.38;5013718;28;20030;-83
2022/09/19 06:14:35;;;;;;;;;;;;;;;16.79;44.05;99769.03;5014164;28;20411;-83
2022/09/19 06:17:00;;;;;;;0.22;0.22;;;;;;;17.00;43.37;99762.88;5013673;28;20000;-82
2022/09/19 06:19:26;;;;;;;0.28;0.28;;;;;;;16.93;42.35;99748.09;5013550;28;20493;-82
2022/09/19 06:21:51;;;;;;;0.20;0.20;;;;;;;16.70;41.55;99743.66;5013830;28;20460;-83
2022/09/19 06:24:17;;;;;;;;;;;;;;;16.81;42.90;99776.03;5014089;28;20034;-84
2022/09/19 06:26:42;;;;;;;0.20;0.20;;;;;;;17.11;42.86;99741.13;5013574;28;19914;-84
2022/09/19 06:29:07;;;;;;;0.30;0.30;;;;;;;17.23;42.69;99763.75;5013946;28;20091;-84
2022/09/19 06:31:35;;;;;;;1.27;1.10;;;;;;;17.43;40.96;99783.38;5013229;28;20099;-83
2022/09/19 06:34:00;;;;;;;0.13;0.13;;;;;;;16.88;41.82;99762.50;5013446;28;20025;-84
2022/09/19 06:36:26;;;;;;;0.60;0.60;;;;;;;16.98;41.15;99755.91;5013181;28;20046;-84
2022/09/19 06:38:51;;;;;;;0.32;0.32;;;;;;;17.58;40.98;99764.06;5013125;28;20431;-84
2022/09/19 06:41:17;;;;;;;0.43;0.30;;;;;;;17.87;41.17;99743.25;5013519;28;20026;-84
2022/09/19 06:43:43;;;;;;;1.10;0.90;;;;;;;17.91;41.61;99757.38;5013713;28;20037;-84
2022/09/19 06:46:10;;;;;;;0.20;0.20;;;;;;;17.43;41.88;99757.59;5013305;28;20033;-83
2022/09/19 06:48:35;;;;;;;0.20;0.20;;;;;;;18.11;41.93;99764.47;5012846;28;20050;-83
2022/09/19 06:51:02;;;;;;;1.20;0.88;;;;;;;18.00;40.61;99770.31;5012882;28;20385;-82
2022/09/19 06:53:27;;;;;;;0.10;0.10;;;;;;;18.12;39.77;99772.44;5013114;28;20036;-83
2022/09/19 06:55:55;;;;;;;0.10;0.10;;;;;;;18.33;39.77;99759.88;5013026;28;20412;-83
2022/09/19 06:58:20;;;;;;;0.32;0.32;;;;;;;18.92;38.83;99755.38;5012881;28;20080;-84
2022/09/19 07:00:46;;;;;;;0.30;0.30;;;;;;;18.85;39.32;99775.31;5012826;28;20519;-84
2022/09/19 07:03:16;;;;;;;0.30;0.30;;;;;;;18.79;38.69;99744.34;5012739;28;20062;-84
2022/09/19 07:05:44;;;;;;;0.20;0.20;;;;;;;18.91;38.27;99766.13;5013061;28;20110;-85
2022/09/19 07:08:11;;;;;;;0.38;0.38;;;;;;;18.97;39.51;99757.81;5013001;28;20022;-85
2022/09/19 07:10:37;;;;;;;0.20;0.20;;;;;;;19.38;38.09;99727.28;5011917;28;20120;-84
2022/09/19 07:13:04;;;;;;;0.28;0.28;;;;;;;19.72;38.70;99757.66;5012739;28;20116;-84
2022/09/19 07:15:35;;;;;;;0.15;0.15;;;;;;;20.07;37.02;99753.16;5012626;28;20033;-84
2022/09/19 07:18:01;;;;;;;0.32;0.30;;;;;;;19.94;35.90;99730.66;5012112;28;20022;-84
2022/09/19 07:20:27;;;;;;;0.40;0.40;;;;;;;20.52;35.42;99721.25;5013096;28;20045;-84
2022/09/19 07:23:11;;;;;;;0.32;0.32;;;;;;;20.49;35.60;99748.22;5012536;28;20034;-85
2022/09/19 07:25:37;;;;;;;0.95;0.93;;;;;;;20.71;34.62;99727.38;5012489;28;20514;-83
2022/09/19 07:28:05;;;;;;;0.40;0.40;;;;;;;20.20;35.15;99739.97;5012454;28;20026;-83
2022/09/19 07:30:32;;;;;;;0.50;0.50;;;;;;;20.90;34.54;99740.56;5012040;28;20034;-85
2022/09/19 07:33:00;;;;;;;0.57;0.40;;;;;;;21.27;35.10;99738.44;5012445;28;20037;-84
2022/09/19 07:35:29;;;;;;;0.73;0.73;;;;;;;21.28;34.79;99733.94;5012282;28;20030;-87
2022/09/19 07:37:56;;;;;;;2.17;0.98;;;;;;;21.52;34.75;99742.38;5012279;28;20030;-86
2022/09/19 07:40:23;;;;;;;0.63;0.63;;;;;;;21.37;33.05;99741.44;5012068;28;20058;-86
2022/09/19 07:42:50;;;;;;;0.30;0.30;;;;;;;21.10;33.49;99742.09;5012123;28;20036;-85
2022/09/19 07:45:17;;;;;;;0.25;0.25;;;;;;;20.85;33.97;99723.00;5012321;28;20030;-85
2022/09/19 07:47:43;;;;;;;0.40;0.40;;;;;;;20.99;34.28;99730.25;5012259;28;20030;-85
2022/09/19 07:50:11;;;;;;;0.30;0.30;;;;;;;21.24;34.66;99741.31;5012012;28;20092;-85
2022/09/19 07:52:36;;;;;;;1.33;0.85;;;;;;;21.08;33.26;99740.47;5012195;28;20025;-86
2022/09/19 07:55:02;;;;;;;0.30;0.30;;;;;;;21.24;33.43;99740.41;5012127;28;20029;-85
2022/09/19 07:57:29;;;;;;;0.20;0.20;;;;;;;21.08;33.88;99700.22;5012009;28;20511;-85
2022/09/19 07:59:54;;;;;;;1.08;0.52;;;;;;;21.48;34.73;99721.16;5011795;28;20029;-85
2022/09/19 08:02:20;;;;;;;0.43;0.43;;;;;;;21.42;33.19;99722.38;5011901;28;20029;-85
2022/09/19 08:04:45;;;;;;;0.20;0.20;;;;;;;21.19;31.95;99721.06;5012225;28;20030;-86
2022/09/19 08:07:11;;;;;;;1.42;0.95;;;;;;;20.65;34.21;99702.69;5011956;28;20018;-85
2022/09/19 08:09:36;;;;;;;0.38;0.38;;;;;;;21.08;33.78;99708.28;4994169;28;20196;-85
2022/09/19 08:12:06;;;;;;;0.20;0.20;;;;;;;21.03;33.28;99707.69;5011635;28;20038;-85
2022/09/19 08:14:32;;;;;;;0.20;0.20;;;;;;;21.36;33.16;99695.91;5011984;28;20030;-85
2022/09/19 08:16:57;;;;;;;0.22;0.22;;;;;;;21.60;32.75;99713.25;5011556;28;20040;-85
2022/09/19 08:19:23;;;;;;;0.77;0.77;;;;;;;21.42;31.92;99700.91;5011645;28;20113;-86
2022/09/19 08:21:50;;;;;;;0.10;0.10;;;;;;;21.51;32.09;99686.13;5009947;28;20085;-85
2022/09/19 08:24:16;;;;;;;0.93;0.93;;;;;;;21.34;31.40;99703.22;5011623;28;20058;-85
2022/09/19 08:26:42;;;;;;;1.35;0.75;;;;;;;21.39;31.06;99675.13;5011452;28;20496;-85
2022/09/19 08:29:08;;;;;;;0.28;0.28;;;;;;;21.71;32.39;99674.19;5011574;28;20037;-85
2022/09/19 08:31:33;;;;;;;0.52;0.52;;;;;;;21.99;31.10;99687.59;5011693;28;20026;-85
2022/09/19 08:34:00;;;;;;;0.00;0.00;;;;;;;21.73;29.35;99674.94;5010865;28;20451;-85
2022/09/19 08:36:25;;;;;;;0.13;0.13;;;;;;;21.89;30.14;99691.84;5011190;28;20030;-84
2022/09/19 08:38:51;;;;;;;0.15;0.15;;;;;;;21.92;30.81;99697.00;5011415;28;20123;-84
2022/09/19 08:41:31;;;;;;;0.32;0.30;;;;;;;22.02;31.80;99691.06;5011234;28;20054;-84
2022/09/19 08:44:06;;;;;;;0.25;0.25;;;;;;;21.62;31.33;99683.66;5011706;28;20026;-83
2022/09/19 08:46:57;;;;;;;0.35;0.35;;;;;;;21.50;31.77;99681.72;5011660;28;20511;-83
2022/09/19 08:49:38;;;;;;;0.50;0.50;;;;;;;21.41;31.61;99675.03;5008890;28;20145;-83
2022/09/19 08:52:22;;;;;;;0.28;0.28;;;;;;;21.00;30.02;99673.88;5011362;28;20041;-84
2022/09/19 08:54:52;;;;;;;0.27;0.27;;;;;;;21.33;31.66;99645.13;5011361;28;20045;-84
2022/09/19 08:57:46;;;;;;;1.27;0.38;;;;;;;21.22;31.48;99657.34;5011278;28;20409;-84
2022/09/19 09:00:19;;;;;;;0.10;0.10;;;;;;;21.06;31.72;99653.88;5010871;28;20053;-84
2022/09/19 09:02:51;;;;;;;0.10;0.10;;;;;;;21.28;31.28;99662.34;4993232;28;20436;-84
2022/09/19 09:05:37;;;;;;;0.10;0.10;;;;;;;21.20;30.76;99656.59;5010795;28;20087;-84
2022/09/19 09:08:27;;;;;;;0.20;0.20;;;;;;;21.15;30.85;99631.00;5011200;28;20496;-84
2022/09/19 09:10:55;;;;;;;0.73;0.60;;;;;;;20.94;29.82;99639.38;5011234;28;20034;-87
2022/09/19 09:13:39;;;;;;;0.10;0.10;;;;;;;20.88;30.90;99624.53;4993386;28;20401;-86
2022/09/19 09:16:24;;;;;;;0.10;0.10;;;;;;;21.31;29.55;99641.69;5011163;28;20030;-85
2022/09/19 09:18:57;;;;;;;0.13;0.13;;;;;;;21.25;28.25;99635.72;5010698;28;20030;-85
2022/09/19 09:21:40;;;;;;;0.10;0.10;;;;;;;21.22;29.33;99621.63;5011463;28;20030;-86
2022/09/19 09:24:30;;;;;;;0.10;0.10;;;;;;;21.32;29.99;99629.97;5011115;28;20030;-86
2022/09/19 09:26:59;;;;;;;0.10;0.10;;;;;;;21.40;29.51;99619.66;5010811;28;20550;-86
2022/09/19 09:29:32;;;;;;;0.20;0.20;;;;;;;21.63;29.44;99605.72;5010984;28;20030;-86
2022/09/19 09:32:21;;;;;;;2.55;1.95;;;;;;;21.44;28.30;99616.69;5010971;28;20034;-86
2022/09/19 09:34:58;;;;;;;1.10;1.10;;;;;;;21.37;28.70;99599.25;5001934;28;20052;-86
2022/09/19 09:37:39;;;;;;;0.10;0.10;;;;;;;21.39;30.25;99589.28;5014620;28;20419;-86
2022/09/19 09:43:07;;;;;;;0.10;0.10;;;;;;;21.27;29.25;99572.13;4983863;28;20045;-87
2022/09/19 09:45:45;;;;;;;0.10;0.10;;;;;;;21.33;29.39;99597.69;5013280;28;20057;-86
2022/09/19 09:48:37;;;;;;;0.65;0.65;;;;;;;21.47;27.94;99596.84;5008336;28;20056;-87
2022/09/19 09:51:42;;;;;;;0.00;0.00;;;;;;;21.03;27.60;99585.19;5009848;28;20069;-86
2022/09/19 09:57:42;;;;;;;0.47;0.20;;;;;;;21.49;28.57;99578.88;5009903;28;20049;-86
2022/09/19 10:06:09;;;;;;;0.30;0.30;;;;;;;21.70;27.31;99571.28;5010166;28;20479;-85
2022/09/19 10:09:12;;;;;;;0.20;0.20;;;;;;;21.82;27.24;99577.72;5010168;28;20030;-87
2022/09/19 10:11:49;;;;;;;0.10;0.10;;;;;;;21.89;26.49;99565.63;5009483;28;20044;-87
2022/09/19 10:14:25;;;;;;;0.10;0.10;;;;;;;21.70;27.21;99527.50;5009483;28;20084;-86
2022/09/19 10:16:53;;;;;;;0.52;0.50;;;;;;;21.59;26.95;99549.66;5009071;28;20085;-86
2022/09/19 10:19:42;;;;;;;0.00;0.00;;;;;;;21.57;28.20;99562.31;4991439;28;20072;-86
2022/09/19 10:22:14;;;;;;;0.10;0.10;;;;;;;21.78;28.31;99554.69;5009509;28;20111;-86
2022/09/19 10:24:50;;;;;;;1.02;0.40;;;;;;;21.70;27.33;99552.50;4991615;28;20033;-86
2022/09/19 10:27:27;;;;;;;0.10;0.10;;;;;;;21.57;28.63;99533.63;4991407;28;20140;-86
2022/09/19 10:29:59;;;;;;;0.55;0.52;;;;;;;21.61;28.82;99500.28;5009835;28;20076;-85
2022/09/19 10:32:37;;;;;;;0.13;0.13;;;;;;;21.76;28.02;99540.53;5009288;28;20140;-87
2022/09/19 10:35:27;;;;;;;0.10;0.10;;;;;;;21.75;27.40;99537.00;5009647;28;20042;-85
2022/09/19 10:38:13;;;;;;;0.13;0.13;;;;;;;21.78;27.94;99528.75;5009409;28;20030;-85
2022/09/19 10:40:59;;;;;;;2.65;0.75;;;;;;;21.53;27.91;99526.72;5008840;28;20049;-86
2022/09/19 10:43:45;;;;;;;0.20;0.20;;;;;;;21.68;28.20;99494.53;5008813;28;20444;-85
2022/09/19 10:46:23;;;;;;;0.32;0.20;;;;;;;21.92;27.47;99490.25;5008784;28;20041;-85
2022/09/19 10:48:59;;;;;;;0.43;0.43;;;;;;;22.23;27.54;99512.41;5008814;28;20049;-85
2022/09/19 10:51:33;;;;;;;0.08;0.05;;;;;;;22.21;28.07;99514.31;5009624;28;20060;-86
2022/09/19 10:54:00;;;;;;;0.10;0.10;;;;;;;22.04;28.52;99487.72;5009169;28;20038;-85
2022/09/19 10:56:28;;;;;;;0.10;0.10;;;;;;;22.09;27.93;99499.00;5009063;28;20088;-85
2022/09/19 10:59:10;;;;;;;1.40;0.95;;;;;;;21.93;27.27;99515.28;5008729;28;20547;-88
2022/09/19 11:01:36;;;;;;;0.15;0.15;;;;;;;21.73;27.64;99479.84;4991354;28;20480;-86
2022/09/19 11:04:05;;;;;;;0.10;0.10;;;;;;;21.75;27.30;99506.56;5008828;28;20113;-87
2022/09/19 11:06:32;;;;;;;0.00;0.00;;;;;;;21.71;27.42;99483.59;5008765;28;20088;-85
2022/09/19 11:09:06;;;;;;;0.00;0.00;;;;;;;21.95;27.74;99486.50;5009009;28;20164;-85
2022/09/19 11:11:45;;;;;;;0.00;0.00;;;;;;;22.26;27.17;99488.03;5008683;28;20068;-85
2022/09/19 11:14:28;;;;;;;0.10;0.10;;;;;;;22.20;27.37;99490.25;5008757;28;20038;-85
2022/09/19 11:17:22;;;;;;;0.10;0.10;;;;;;;22.64;27.22;99483.72;5008571;28;20492;-85
2022/09/19 11:20:16;;;;;;;0.00;0.00;;;;;;;22.13;28.44;99473.69;5008276;28;20506;-85
2022/09/19 11:23:13;;;;;;;0.10;0.10;;;;;;;22.54;28.42;99472.75;5008824;28;20026;-86
2022/09/19 11:26:04;;;;;;;0.00;0.00;;;;;;;22.48;27.70;99462.44;4990340;28;20424;-85
2022/09/19 11:28:47;;;;;;;0.10;0.10;;;;;;;22.59;28.93;99467.91;5008498;28;20045;-85
2022/09/19 11:31:59;;;;;;;0.10;0.10;;;;;;;22.77;27.20;99457.75;5009428;28;20045;-85
2022/09/19 11:34:34;;;;;;;0.17;0.17;;;;;;;23.00;28.24;99463.31;5011122;28;20041;-85
2022/09/19 11:37:15;;;;;;;1.27;0.30;;;;;;;22.79;28.10;99463.00;5010100;28;20488;-85
2022/09/19 11:39:52;;;;;;;0.98;0.55;;;;;;;23.00;27.22;99456.13;5008125;28;20029;-87
2022/09/19 11:42:48;;;;;;;0.10;0.10;;;;;;;22.79;27.86;99412.78;5007990;28;20423;-84
2022/09/19 11:45:20;;;;;;;0.00;0.00;;;;;;;22.82;27.74;99438.59;5008118;28;20041;-85
2022/09/19 11:48:27;;;;;;;0.10;0.10;;;;;;;22.64;28.62;99433.50;5007788;28;20044;-84
2022/09/19 11:51:01;;;;;;;0.10;0.10;;;;;;;22.63;27.38;99421.06;4990731;28;20122;-85
2022/09/19 11:53:48;;;;;;;0.65;0.52;;;;;;;22.68;27.89;99431.50;5009994;28;20029;-86
2022/09/19 11:56:35;;;;;;;0.00;0.00;;;;;;;23.12;27.33;99429.34;5011298;28;20420;-85
2022/09/19 11:59:25;;;;;;;0.28;0.28;;;;;;;23.22;27.05;99427.72;5011786;28;20088;-85
2022/09/19 12:02:12;;;;;;;0.10;0.10;;;;;;;23.23;26.89;99426.75;5012060;28;20049;-86
2022/09/19 12:05:15;;;;;;;2.28;1.35;;;;;;;23.28;26.25;99411.16;5011872;28;20030;-86
2022/09/19 12:07:57;;;;;;;0.15;0.15;;;;;;;23.26;26.57;99413.06;5011442;28;20091;-85
2022/09/19 12:10:43;;;;;;;0.90;0.85;;;;;;;22.57;27.74;99396.41;5012197;28;20536;-85
2022/09/19 12:13:16;;;;;;;0.10;0.10;;;;;;;22.95;27.82;99406.31;5011828;28;20038;-85
2022/09/19 12:15:58;;;;;;;0.10;0.10;;;;;;;22.70;27.59;99382.00;5011398;28;20033;-86
2022/09/19 12:18:29;;;;;;;0.65;0.47;;;;;;;22.83;28.04;99390.09;5011374;28;20465;-85
2022/09/19 12:20:58;;;;;;;0.00;0.00;;;;;;;22.83;27.90;99391.91;5011451;28;20092;-85
2022/09/19 12:26:21;;;;;;;0.28;0.28;;;;;;;23.01;28.46;99378.97;5011672;28;20099;-84